sensor_id;sensor_type;location;lat;lon;timestamp;temperature;humidity
9482;DHT22;4779;48.062;11.672;2023-11-21T00:02:25;7.50;99.90
9482;DHT22;4779;48.062;11.672;2023-11-21T00:04:54;7.50;99.90
9482;DHT22;4779;48.062;11.672;2023-11-21T00:07:21;7.60;99.90
9482;DHT22;4779;48.062;11.672;2023-11-21T00:09:48;7.50;99.90
9482;DHT22;4779;48.062;11.672;2023-11-21T00:12:15;7.60;99.90
9482;DHT22;4779;48.062;11.672;2023-11-21T00:14:42;7.50;99.90
9482;DHT22;4779;48.062;11.672;2023-11-21T00:17:09;7.50;99.90
9482;DHT22;4779;48.062;11.672;2023-11-21T00:19:36;7.50;99.90
9482;DHT22;4779;48.062;11.672;2023-11-21T00:22:05;7.60;99.90
9482;DHT22;4779;48.062;11.672;2023-11-21T00:24:32;7.60;99.90
9482;DHT22;4779;48.062;11.672;2023-11-21T00:26:59;7.60;99.90
9482;DHT22;4779;48.062;11.672;2023-11-21T00:29:27;7.60;99.90
9482;DHT22;4779;48.062;11.672;2023-11-21T00:31:55;7.60;99.90
9482;DHT22;4779;48.062;11.672;2023-11-21T00:34:22;7.60;99.90
9482;DHT22;4779;48.062;11.672;2023-11-21T00:36:50;7.60;99.90
9482;DHT22;4779;48.062;11.672;2023-11-21T00:39:19;7.60;99.90
9482;DHT22;4779;48.062;11.672;2023-11-21T00:41:49;7.60;99.90
9482;DHT22;4779;48.062;11.672;2023-11-21T00:44:16;7.60;99.90
9482;DHT22;4779;48.062;11.672;2023-11-21T00:46:43;7.50;99.90
9482;DHT22;4779;48.062;11.672;2023-11-21T00:49:10;7.60;99.90
9482;DHT22;4779;48.062;11.672;2023-11-21T00:51:37;7.50;99.90
9482;DHT22;4779;48.062;11.672;2023-11-21T00:54:05;7.50;99.90
9482;DHT22;4779;48.062;11.672;2023-11-21T00:56:33;7.50;99.90
9482;DHT22;4779;48.062;11.672;2023-11-21T00:59:01;7.40;99.90
9482;DHT22;4779;48.062;11.672;2023-11-21T01:01:30;7.50;99.90
9482;DHT22;4779;48.062;11.672;2023-11-21T01:03:57;7.40;99.90
9482;DHT22;4779;48.062;11.672;2023-11-21T01:06:24;7.40;99.90
9482;DHT22;4779;48.062;11.672;2023-11-21T01:08:51;7.50;99.90
9482;DHT22;4779;48.062;11.672;2023-11-21T01:11:18;7.40;99.90
9482;DHT22;4779;48.062;11.672;2023-11-21T01:13:47;7.40;99.90
9482;DHT22;4779;48.062;11.672;2023-11-21T01:16:14;7.30;99.90
9482;DHT22;4779;48.062;11.672;2023-11-21T01:18:41;7.40;99.90
9482;DHT22;4779;48.062;11.672;2023-11-21T01:21:08;7.40;99.90
9482;DHT22;4779;48.062;11.672;2023-11-21T01:23:35;7.40;99.90
9482;DHT22;4779;48.062;11.672;2023-11-21T01:26:02;7.40;99.90
9482;DHT22;4779;48.062;11.672;2023-11-21T01:28:29;7.30;99.90
9482;DHT22;4779;48.062;11.672;2023-11-21T01:30:57;7.30;99.90
9482;DHT22;4779;48.062;11.672;2023-11-21T01:33:24;7.30;99.90
9482;DHT22;4779;48.062;11.672;2023-11-21T01:35:51;7.20;99.90
9482;DHT22;4779;48.062;11.672;2023-11-21T01:38:20;7.20;99.90
9482;DHT22;4779;48.062;11.672;2023-11-21T01:40:47;7.20;99.90
9482;DHT22;4779;48.062;11.672;2023-11-21T01:43:14;7.10;99.90
9482;DHT22;4779;48.062;11.672;2023-11-21T01:45:42;7.20;99.90
9482;DHT22;4779;48.062;11.672;2023-11-21T01:48:13;7.20;99.90
9482;DHT22;4779;48.062;11.672;2023-11-21T01:50:42;7.20;99.90
9482;DHT22;4779;48.062;11.672;2023-11-21T01:53:11;7.20;99.90
9482;DHT22;4779;48.062;11.672;2023-11-21T01:55:40;7.20;99.90
9482;DHT22;4779;48.062;11.672;2023-11-21T01:58:09;7.20;99.90
9482;DHT22;4779;48.062;11.672;2023-11-21T02:00:37;7.10;99.90
9482;DHT22;4779;48.062;11.672;2023-11-21T02:03:04;7.00;99.90
9482;DHT22;4779;48.062;11.672;2023-11-21T02:05:34;7.10;99.90
9482;DHT22;4779;48.062;11.672;2023-11-21T02:08:01;7.10;99.90
9482;DHT22;4779;48.062;11.672;2023-11-21T02:10:30;7.20;99.90
9482;DHT22;4779;48.062;11.672;2023-11-21T02:12:57;7.20;99.90
9482;DHT22;4779;48.062;11.672;2023-11-21T02:15:27;7.00;99.90
9482;DHT22;4779;48.062;11.672;2023-11-21T02:17:54;7.00;99.90
9482;DHT22;4779;48.062;11.672;2023-11-21T02:20:24;7.00;99.90
9482;DHT22;4779;48.062;11.672;2023-11-21T02:22:54;7.00;99.90
9482;DHT22;4779;48.062;11.672;2023-11-21T02:25:23;7.00;99.90
9482;DHT22;4779;48.062;11.672;2023-11-21T02:27:50;7.00;99.90
9482;DHT22;4779;48.062;11.672;2023-11-21T02:30:17;7.10;99.90
9482;DHT22;4779;48.062;11.672;2023-11-21T02:32:44;7.20;99.90
9482;DHT22;4779;48.062;11.672;2023-11-21T02:35:11;7.20;99.90
9482;DHT22;4779;48.062;11.672;2023-11-21T02:37:38;7.20;99.90
9482;DHT22;4779;48.062;11.672;2023-11-21T02:40:09;7.30;99.90
9482;DHT22;4779;48.062;11.672;2023-11-21T02:42:38;7.30;99.90
9482;DHT22;4779;48.062;11.672;2023-11-21T02:45:07;7.20;99.90
9482;DHT22;4779;48.062;11.672;2023-11-21T02:47:34;7.20;99.90
9482;DHT22;4779;48.062;11.672;2023-11-21T02:50:01;7.30;99.90
9482;DHT22;4779;48.062;11.672;2023-11-21T02:52:29;7.30;99.90
9482;DHT22;4779;48.062;11.672;2023-11-21T02:54:58;7.30;99.90
9482;DHT22;4779;48.062;11.672;2023-11-21T02:57:27;7.20;99.90
9482;DHT22;4779;48.062;11.672;2023-11-21T02:59:54;7.30;99.90
9482;DHT22;4779;48.062;11.672;2023-11-21T03:02:21;7.30;99.90
9482;DHT22;4779;48.062;11.672;2023-11-21T03:04:49;7.40;99.90
9482;DHT22;4779;48.062;11.672;2023-11-21T03:07:16;7.30;99.90
9482;DHT22;4779;48.062;11.672;2023-11-21T03:09:44;7.30;99.90
9482;DHT22;4779;48.062;11.672;2023-11-21T03:12:12;7.30;99.90
9482;DHT22;4779;48.062;11.672;2023-11-21T03:14:40;7.30;99.90
9482;DHT22;4779;48.062;11.672;2023-11-21T03:17:07;7.20;99.90
9482;DHT22;4779;48.062;11.672;2023-11-21T03:19:34;7.30;99.90
9482;DHT22;4779;48.062;11.672;2023-11-21T03:22:01;7.20;99.90
9482;DHT22;4779;48.062;11.672;2023-11-21T03:24:29;7.20;99.90
9482;DHT22;4779;48.062;11.672;2023-11-21T03:26:56;7.20;99.90
9482;DHT22;4779;48.062;11.672;2023-11-21T03:29:23;7.20;99.90
9482;DHT22;4779;48.062;11.672;2023-11-21T03:31:52;7.10;99.90
9482;DHT22;4779;48.062;11.672;2023-11-21T03:34:24;7.20;99.90
9482;DHT22;4779;48.062;11.672;2023-11-21T03:36:51;7.10;99.90
9482;DHT22;4779;48.062;11.672;2023-11-21T03:39:19;7.10;99.90
9482;DHT22;4779;48.062;11.672;2023-11-21T03:41:46;7.10;99.90
9482;DHT22;4779;48.062;11.672;2023-11-21T03:44:13;7.10;99.90
9482;DHT22;4779;48.062;11.672;2023-11-21T03:46:40;7.10;99.90
9482;DHT22;4779;48.062;11.672;2023-11-21T03:49:09;7.10;99.90
9482;DHT22;4779;48.062;11.672;2023-11-21T03:51:36;7.10;99.90
9482;DHT22;4779;48.062;11.672;2023-11-21T03:54:04;7.10;99.90
9482;DHT22;4779;48.062;11.672;2023-11-21T03:56:31;7.10;99.90
9482;DHT22;4779;48.062;11.672;2023-11-21T03:58:57;7.00;99.90
9482;DHT22;4779;48.062;11.672;2023-11-21T04:01:24;7.00;99.90
9482;DHT22;4779;48.062;11.672;2023-11-21T04:03:51;7.00;99.90
9482;DHT22;4779;48.062;11.672;2023-11-21T04:06:20;7.00;99.90
9482;DHT22;4779;48.062;11.672;2023-11-21T04:08:47;7.00;99.90
9482;DHT22;4779;48.062;11.672;2023-11-21T04:11:14;7.00;99.90
9482;DHT22;4779;48.062;11.672;2023-11-21T04:13:41;7.10;99.90
9482;DHT22;4779;48.062;11.672;2023-11-21T04:16:09;7.10;99.90
9482;DHT22;4779;48.062;11.672;2023-11-21T04:18:36;7.10;99.90
9482;DHT22;4779;48.062;11.672;2023-11-21T04:21:04;7.00;99.90
9482;DHT22;4779;48.062;11.672;2023-11-21T04:23:33;7.00;99.90
9482;DHT22;4779;48.062;11.672;2023-11-21T04:26:00;7.10;99.90
9482;DHT22;4779;48.062;11.672;2023-11-21T04:28:27;7.10;99.90
9482;DHT22;4779;48.062;11.672;2023-11-21T04:30:54;7.10;99.90
9482;DHT22;4779;48.062;11.672;2023-11-21T04:33:21;7.00;99.90
9482;DHT22;4779;48.062;11.672;2023-11-21T04:35:49;7.10;99.90
9482;DHT22;4779;48.062;11.672;2023-11-21T04:38:16;7.20;99.90
9482;DHT22;4779;48.062;11.672;2023-11-21T04:40:44;7.20;99.90
9482;DHT22;4779;48.062;11.672;2023-11-21T04:43:11;7.10;99.90
9482;DHT22;4779;48.062;11.672;2023-11-21T04:45:38;7.10;99.90
9482;DHT22;4779;48.062;11.672;2023-11-21T04:48:06;7.20;99.90
9482;DHT22;4779;48.062;11.672;2023-11-21T04:50:33;7.10;99.90
9482;DHT22;4779;48.062;11.672;2023-11-21T04:53:00;7.20;99.90
9482;DHT22;4779;48.062;11.672;2023-11-21T04:55:28;7.20;99.90
9482;DHT22;4779;48.062;11.672;2023-11-21T04:57:56;7.20;99.90
9482;DHT22;4779;48.062;11.672;2023-11-21T05:00:23;7.20;99.90
9482;DHT22;4779;48.062;11.672;2023-11-21T05:02:50;7.10;99.90
9482;DHT22;4779;48.062;11.672;2023-11-21T05:05:18;7.00;99.90
9482;DHT22;4779;48.062;11.672;2023-11-21T05:07:45;7.00;99.90
9482;DHT22;4779;48.062;11.672;2023-11-21T05:10:12;7.00;99.90
9482;DHT22;4779;48.062;11.672;2023-11-21T05:12:41;7.10;99.90
9482;DHT22;4779;48.062;11.672;2023-11-21T05:15:09;7.10;99.90
9482;DHT22;4779;48.062;11.672;2023-11-21T05:17:36;7.10;99.90
9482;DHT22;4779;48.062;11.672;2023-11-21T05:20:05;7.00;99.90
9482;DHT22;4779;48.062;11.672;2023-11-21T05:22:34;6.90;99.90
9482;DHT22;4779;48.062;11.672;2023-11-21T05:25:01;7.00;99.90
9482;DHT22;4779;48.062;11.672;2023-11-21T05:27:29;6.90;99.90
9482;DHT22;4779;48.062;11.672;2023-11-21T05:29:56;7.00;99.90
9482;DHT22;4779;48.062;11.672;2023-11-21T05:32:25;7.00;99.90
9482;DHT22;4779;48.062;11.672;2023-11-21T05:34:52;7.00;99.90
9482;DHT22;4779;48.062;11.672;2023-11-21T05:37:19;6.90;99.90
9482;DHT22;4779;48.062;11.672;2023-11-21T05:39:46;6.80;99.90
9482;DHT22;4779;48.062;11.672;2023-11-21T05:42:13;6.80;99.90
9482;DHT22;4779;48.062;11.672;2023-11-21T05:44:42;6.80;99.90
9482;DHT22;4779;48.062;11.672;2023-11-21T05:47:09;6.80;99.90
9482;DHT22;4779;48.062;11.672;2023-11-21T05:49:38;6.90;99.90
9482;DHT22;4779;48.062;11.672;2023-11-21T05:52:05;6.80;99.90
9482;DHT22;4779;48.062;11.672;2023-11-21T05:54:32;6.90;99.90
9482;DHT22;4779;48.062;11.672;2023-11-21T05:56:59;6.90;99.90
9482;DHT22;4779;48.062;11.672;2023-11-21T05:59:27;6.80;99.90
9482;DHT22;4779;48.062;11.672;2023-11-21T06:01:54;6.90;99.90
9482;DHT22;4779;48.062;11.672;2023-11-21T06:04:21;6.90;99.90
9482;DHT22;4779;48.062;11.672;2023-11-21T06:06:52;6.90;99.90
9482;DHT22;4779;48.062;11.672;2023-11-21T06:09:19;6.90;99.90
9482;DHT22;4779;48.062;11.672;2023-11-21T06:11:46;6.90;99.90
9482;DHT22;4779;48.062;11.672;2023-11-21T06:14:13;6.90;99.90
9482;DHT22;4779;48.062;11.672;2023-11-21T06:16:43;7.00;99.90
9482;DHT22;4779;48.062;11.672;2023-11-21T06:19:11;7.00;99.90
9482;DHT22;4779;48.062;11.672;2023-11-21T06:21:38;7.00;99.90
9482;DHT22;4779;48.062;11.672;2023-11-21T06:24:07;7.00;99.90
9482;DHT22;4779;48.062;11.672;2023-11-21T06:26:34;7.00;99.90
9482;DHT22;4779;48.062;11.672;2023-11-21T06:29:01;7.00;99.90
9482;DHT22;4779;48.062;11.672;2023-11-21T06:31:29;7.00;99.90
9482;DHT22;4779;48.062;11.672;2023-11-21T06:33:58;7.00;99.90
9482;DHT22;4779;48.062;11.672;2023-11-21T06:36:26;7.00;99.90
9482;DHT22;4779;48.062;11.672;2023-11-21T06:38:53;7.00;99.90
9482;DHT22;4779;48.062;11.672;2023-11-21T06:41:22;7.00;99.90
9482;DHT22;4779;48.062;11.672;2023-11-21T06:43:49;7.00;99.90
9482;DHT22;4779;48.062;11.672;2023-11-21T06:46:16;7.00;99.90
9482;DHT22;4779;48.062;11.672;2023-11-21T06:48:44;7.00;99.90
9482;DHT22;4779;48.062;11.672;2023-11-21T06:51:11;7.00;99.90
9482;DHT22;4779;48.062;11.672;2023-11-21T06:53:38;7.10;99.90
9482;DHT22;4779;48.062;11.672;2023-11-21T06:56:15;7.10;99.90
9482;DHT22;4779;48.062;11.672;2023-11-21T06:58:44;7.10;99.90
9482;DHT22;4779;48.062;11.672;2023-11-21T07:01:12;7.00;99.90
9482;DHT22;4779;48.062;11.672;2023-11-21T07:03:40;7.10;99.90
9482;DHT22;4779;48.062;11.672;2023-11-21T07:06:08;7.10;99.90
9482;DHT22;4779;48.062;11.672;2023-11-21T07:08:35;7.20;99.90
9482;DHT22;4779;48.062;11.672;2023-11-21T07:11:02;7.20;99.90
9482;DHT22;4779;48.062;11.672;2023-11-21T07:13:30;7.10;99.90
9482;DHT22;4779;48.062;11.672;2023-11-21T07:15:59;7.10;99.90
9482;DHT22;4779;48.062;11.672;2023-11-21T07:18:26;7.20;99.90
9482;DHT22;4779;48.062;11.672;2023-11-21T07:20:53;7.20;99.90
9482;DHT22;4779;48.062;11.672;2023-11-21T07:23:20;7.20;99.90
9482;DHT22;4779;48.062;11.672;2023-11-21T07:25:48;7.20;99.90
9482;DHT22;4779;48.062;11.672;2023-11-21T07:28:15;7.20;99.90
9482;DHT22;4779;48.062;11.672;2023-11-21T07:30:42;7.20;99.90
9482;DHT22;4779;48.062;11.672;2023-11-21T07:33:11;7.20;99.90
9482;DHT22;4779;48.062;11.672;2023-11-21T07:35:38;7.20;99.90
9482;DHT22;4779;48.062;11.672;2023-11-21T07:38:05;7.20;99.90
9482;DHT22;4779;48.062;11.672;2023-11-21T07:40:32;7.30;99.90
9482;DHT22;4779;48.062;11.672;2023-11-21T07:42:59;7.20;99.90
9482;DHT22;4779;48.062;11.672;2023-11-21T07:45:26;7.20;99.90
9482;DHT22;4779;48.062;11.672;2023-11-21T07:47:54;7.20;99.90
9482;DHT22;4779;48.062;11.672;2023-11-21T07:50:23;7.20;99.90
9482;DHT22;4779;48.062;11.672;2023-11-21T07:52:50;7.20;99.90
9482;DHT22;4779;48.062;11.672;2023-11-21T07:55:17;7.20;99.90
9482;DHT22;4779;48.062;11.672;2023-11-21T07:57:44;7.20;99.90
9482;DHT22;4779;48.062;11.672;2023-11-21T08:00:12;7.30;99.90
9482;DHT22;4779;48.062;11.672;2023-11-21T08:02:41;7.30;99.90
9482;DHT22;4779;48.062;11.672;2023-11-21T08:05:11;7.20;99.90
9482;DHT22;4779;48.062;11.672;2023-11-21T08:07:40;7.30;99.90
9482;DHT22;4779;48.062;11.672;2023-11-21T08:10:08;7.40;99.90
9482;DHT22;4779;48.062;11.672;2023-11-21T08:12:36;7.40;99.90
9482;DHT22;4779;48.062;11.672;2023-11-21T08:15:05;7.30;99.90
9482;DHT22;4779;48.062;11.672;2023-11-21T08:17:33;7.30;99.90
9482;DHT22;4779;48.062;11.672;2023-11-21T08:20:00;7.50;99.90
9482;DHT22;4779;48.062;11.672;2023-11-21T08:22:29;7.50;99.90
9482;DHT22;4779;48.062;11.672;2023-11-21T08:24:58;7.60;99.90
9482;DHT22;4779;48.062;11.672;2023-11-21T08:27:25;7.70;99.90
9482;DHT22;4779;48.062;11.672;2023-11-21T08:29:52;7.70;99.90
9482;DHT22;4779;48.062;11.672;2023-11-21T08:32:20;7.70;99.90
9482;DHT22;4779;48.062;11.672;2023-11-21T08:34:47;7.80;99.90
9482;DHT22;4779;48.062;11.672;2023-11-21T08:37:16;7.90;99.90
9482;DHT22;4779;48.062;11.672;2023-11-21T08:39:43;7.80;99.90
9482;DHT22;4779;48.062;11.672;2023-11-21T08:42:12;7.70;99.90
9482;DHT22;4779;48.062;11.672;2023-11-21T08:44:39;7.80;99.90
9482;DHT22;4779;48.062;11.672;2023-11-21T08:47:06;7.80;99.90
9482;DHT22;4779;48.062;11.672;2023-11-21T08:49:33;7.90;99.90
9482;DHT22;4779;48.062;11.672;2023-11-21T08:52:00;8.00;99.90
9482;DHT22;4779;48.062;11.672;2023-11-21T08:54:27;8.10;99.90
9482;DHT22;4779;48.062;11.672;2023-11-21T08:56:54;8.10;99.90
9482;DHT22;4779;48.062;11.672;2023-11-21T08:59:25;8.20;99.90
9482;DHT22;4779;48.062;11.672;2023-11-21T09:01:52;8.10;99.90
9482;DHT22;4779;48.062;11.672;2023-11-21T09:04:19;8.10;99.90
9482;DHT22;4779;48.062;11.672;2023-11-21T09:06:46;8.20;99.90
9482;DHT22;4779;48.062;11.672;2023-11-21T09:09:13;8.20;99.90
9482;DHT22;4779;48.062;11.672;2023-11-21T09:11:40;8.20;99.90
9482;DHT22;4779;48.062;11.672;2023-11-21T09:14:07;8.30;99.90
9482;DHT22;4779;48.062;11.672;2023-11-21T09:16:35;8.20;99.90
9482;DHT22;4779;48.062;11.672;2023-11-21T09:19:02;8.20;99.90
9482;DHT22;4779;48.062;11.672;2023-11-21T09:21:31;8.30;99.90
9482;DHT22;4779;48.062;11.672;2023-11-21T09:23:58;8.40;99.90
9482;DHT22;4779;48.062;11.672;2023-11-21T09:26:25;8.50;99.90
9482;DHT22;4779;48.062;11.672;2023-11-21T09:28:52;8.50;99.90
9482;DHT22;4779;48.062;11.672;2023-11-21T09:31:22;8.60;99.90
9482;DHT22;4779;48.062;11.672;2023-11-21T09:33:51;8.60;99.90
9482;DHT22;4779;48.062;11.672;2023-11-21T09:36:18;8.50;99.90
9482;DHT22;4779;48.062;11.672;2023-11-21T09:38:47;8.50;99.90
9482;DHT22;4779;48.062;11.672;2023-11-21T09:41:20;8.50;99.90
9482;DHT22;4779;48.062;11.672;2023-11-21T09:43:52;8.50;99.90
9482;DHT22;4779;48.062;11.672;2023-11-21T09:46:23;8.50;99.90
9482;DHT22;4779;48.062;11.672;2023-11-21T09:48:56;8.60;99.90
9482;DHT22;4779;48.062;11.672;2023-11-21T09:51:27;8.60;99.90
9482;DHT22;4779;48.062;11.672;2023-11-21T09:53:59;8.70;99.90
9482;DHT22;4779;48.062;11.672;2023-11-21T09:56:32;8.70;99.90
9482;DHT22;4779;48.062;11.672;2023-11-21T09:59:00;8.60;99.90
9482;DHT22;4779;48.062;11.672;2023-11-21T10:01:32;8.70;99.90
9482;DHT22;4779;48.062;11.672;2023-11-21T10:04:01;8.70;99.90
9482;DHT22;4779;48.062;11.672;2023-11-21T10:06:28;8.80;99.90
9482;DHT22;4779;48.062;11.672;2023-11-21T10:08:57;8.80;99.90
9482;DHT22;4779;48.062;11.672;2023-11-21T10:11:27;8.90;99.90
9482;DHT22;4779;48.062;11.672;2023-11-21T10:13:58;9.00;99.90
9482;DHT22;4779;48.062;11.672;2023-11-21T10:16:26;9.00;99.90
9482;DHT22;4779;48.062;11.672;2023-11-21T10:18:55;9.10;99.90
9482;DHT22;4779;48.062;11.672;2023-11-21T10:21:24;9.20;99.90
9482;DHT22;4779;48.062;11.672;2023-11-21T10:23:52;9.10;99.90
9482;DHT22;4779;48.062;11.672;2023-11-21T10:26:20;9.60;99.90
9482;DHT22;4779;48.062;11.672;2023-11-21T10:28:56;9.90;99.90
9482;DHT22;4779;48.062;11.672;2023-11-21T10:31:24;10.00;99.90
9482;DHT22;4779;48.062;11.672;2023-11-21T10:33:51;9.80;99.90
9482;DHT22;4779;48.062;11.672;2023-11-21T10:36:29;9.60;99.90
9482;DHT22;4779;48.062;11.672;2023-11-21T10:38:56;9.40;99.90
9482;DHT22;4779;48.062;11.672;2023-11-21T10:41:23;9.30;99.90
9482;DHT22;4779;48.062;11.672;2023-11-21T10:43:53;9.10;99.90
9482;DHT22;4779;48.062;11.672;2023-11-21T10:46:22;9.00;99.90
9482;DHT22;4779;48.062;11.672;2023-11-21T10:48:52;9.00;99.90
9482;DHT22;4779;48.062;11.672;2023-11-21T10:51:21;9.00;99.90
9482;DHT22;4779;48.062;11.672;2023-11-21T10:53:51;9.00;99.90
9482;DHT22;4779;48.062;11.672;2023-11-21T10:56:19;9.10;99.90
9482;DHT22;4779;48.062;11.672;2023-11-21T10:58:48;9.00;99.90
9482;DHT22;4779;48.062;11.672;2023-11-21T11:01:18;9.00;99.90
9482;DHT22;4779;48.062;11.672;2023-11-21T11:03:47;9.00;99.90
9482;DHT22;4779;48.062;11.672;2023-11-21T11:06:16;9.00;99.90
9482;DHT22;4779;48.062;11.672;2023-11-21T11:08:44;9.00;99.90
9482;DHT22;4779;48.062;11.672;2023-11-21T11:11:12;9.00;99.90
9482;DHT22;4779;48.062;11.672;2023-11-21T11:13:43;9.00;99.90
9482;DHT22;4779;48.062;11.672;2023-11-21T11:16:12;9.10;99.90
9482;DHT22;4779;48.062;11.672;2023-11-21T11:18:42;9.20;99.90
9482;DHT22;4779;48.062;11.672;2023-11-21T11:21:18;9.30;99.90
9482;DHT22;4779;48.062;11.672;2023-11-21T11:24:04;9.30;99.90
9482;DHT22;4779;48.062;11.672;2023-11-21T11:26:42;9.30;99.90
9482;DHT22;4779;48.062;11.672;2023-11-21T11:29:18;9.20;99.90
9482;DHT22;4779;48.062;11.672;2023-11-21T11:31:57;9.20;99.90
9482;DHT22;4779;48.062;11.672;2023-11-21T11:34:30;9.10;99.90
9482;DHT22;4779;48.062;11.672;2023-11-21T11:37:01;9.00;99.90
9482;DHT22;4779;48.062;11.672;2023-11-21T11:39:30;9.00;99.90
9482;DHT22;4779;48.062;11.672;2023-11-21T11:42:02;9.00;99.90
9482;DHT22;4779;48.062;11.672;2023-11-21T11:44:48;9.10;99.90
9482;DHT22;4779;48.062;11.672;2023-11-21T11:47:19;9.20;99.90
9482;DHT22;4779;48.062;11.672;2023-11-21T11:50:03;9.20;99.90
9482;DHT22;4779;48.062;11.672;2023-11-21T11:52:37;9.30;99.90
9482;DHT22;4779;48.062;11.672;2023-11-21T11:55:07;9.40;99.90
9482;DHT22;4779;48.062;11.672;2023-11-21T11:57:37;9.50;99.90
9482;DHT22;4779;48.062;11.672;2023-11-21T12:00:15;9.60;99.90
9482;DHT22;4779;48.062;11.672;2023-11-21T12:02:45;9.60;99.90
9482;DHT22;4779;48.062;11.672;2023-11-21T12:05:14;9.60;99.90
9482;DHT22;4779;48.062;11.672;2023-11-21T12:07:45;9.50;99.90
9482;DHT22;4779;48.062;11.672;2023-11-21T12:10:14;9.50;99.90
9482;DHT22;4779;48.062;11.672;2023-11-21T12:12:49;9.60;99.90
9482;DHT22;4779;48.062;11.672;2023-11-21T12:15:18;9.70;99.90
9482;DHT22;4779;48.062;11.672;2023-11-21T12:17:46;9.70;99.90
9482;DHT22;4779;48.062;11.672;2023-11-21T12:20:13;9.70;99.90
9482;DHT22;4779;48.062;11.672;2023-11-21T12:22:44;9.60;99.90
9482;DHT22;4779;48.062;11.672;2023-11-21T12:25:13;9.60;99.90
9482;DHT22;4779;48.062;11.672;2023-11-21T12:27:42;9.60;99.90
9482;DHT22;4779;48.062;11.672;2023-11-21T12:30:13;9.50;99.90
9482;DHT22;4779;48.062;11.672;2023-11-21T12:32:42;9.50;99.90
9482;DHT22;4779;48.062;11.672;2023-11-21T12:35:09;9.40;99.90
9482;DHT22;4779;48.062;11.672;2023-11-21T12:37:37;9.40;99.90
9482;DHT22;4779;48.062;11.672;2023-11-21T12:40:06;9.50;99.90
9482;DHT22;4779;48.062;11.672;2023-11-21T12:42:34;9.60;99.90
9482;DHT22;4779;48.062;11.672;2023-11-21T12:45:09;9.60;99.90
9482;DHT22;4779;48.062;11.672;2023-11-21T12:47:41;9.50;99.90
9482;DHT22;4779;48.062;11.672;2023-11-21T12:50:09;9.50;99.90
9482;DHT22;4779;48.062;11.672;2023-11-21T12:52:41;9.60;99.90
9482;DHT22;4779;48.062;11.672;2023-11-21T12:55:10;9.60;99.90
9482;DHT22;4779;48.062;11.672;2023-11-21T12:57:42;9.50;99.90
9482;DHT22;4779;48.062;11.672;2023-11-21T13:00:17;9.60;99.90
9482;DHT22;4779;48.062;11.672;2023-11-21T13:02:57;9.60;99.90
9482;DHT22;4779;48.062;11.672;2023-11-21T13:05:33;9.80;99.90
9482;DHT22;4779;48.062;11.672;2023-11-21T13:08:25;9.90;99.90
9482;DHT22;4779;48.062;11.672;2023-11-21T13:11:06;10.10;99.90
9482;DHT22;4779;48.062;11.672;2023-11-21T13:13:44;10.30;99.90
9482;DHT22;4779;48.062;11.672;2023-11-21T13:16:21;10.50;99.90
9482;DHT22;4779;48.062;11.672;2023-11-21T13:18:58;10.50;99.90
9482;DHT22;4779;48.062;11.672;2023-11-21T13:21:39;10.50;99.90
9482;DHT22;4779;48.062;11.672;2023-11-21T13:24:07;10.40;99.90
9482;DHT22;4779;48.062;11.672;2023-11-21T13:26:38;10.30;99.90
9482;DHT22;4779;48.062;11.672;2023-11-21T13:29:06;10.30;99.90
9482;DHT22;4779;48.062;11.672;2023-11-21T13:31:33;10.30;99.90
9482;DHT22;4779;48.062;11.672;2023-11-21T13:34:06;10.20;99.90
9482;DHT22;4779;48.062;11.672;2023-11-21T13:36:34;10.00;99.90
9482;DHT22;4779;48.062;11.672;2023-11-21T13:39:01;9.80;99.90
9482;DHT22;4779;48.062;11.672;2023-11-21T13:41:33;9.40;99.90
9482;DHT22;4779;48.062;11.672;2023-11-21T13:44:00;9.20;99.90
9482;DHT22;4779;48.062;11.672;2023-11-21T13:46:40;9.00;99.90
9482;DHT22;4779;48.062;11.672;2023-11-21T13:49:08;8.80;99.90
9482;DHT22;4779;48.062;11.672;2023-11-21T13:51:35;8.70;99.90
9482;DHT22;4779;48.062;11.672;2023-11-21T13:54:07;8.70;99.90
9482;DHT22;4779;48.062;11.672;2023-11-21T13:56:35;8.70;99.90
9482;DHT22;4779;48.062;11.672;2023-11-21T13:59:03;8.70;99.90
9482;DHT22;4779;48.062;11.672;2023-11-21T14:01:46;8.70;99.90
9482;DHT22;4779;48.062;11.672;2023-11-21T14:04:22;8.80;99.90
9482;DHT22;4779;48.062;11.672;2023-11-21T14:07:04;8.80;99.90
9482;DHT22;4779;48.062;11.672;2023-11-21T14:09:46;9.00;99.90
9482;DHT22;4779;48.062;11.672;2023-11-21T14:12:21;9.10;99.90
9482;DHT22;4779;48.062;11.672;2023-11-21T14:14:48;9.20;99.90
9482;DHT22;4779;48.062;11.672;2023-11-21T14:17:15;9.10;99.90
9482;DHT22;4779;48.062;11.672;2023-11-21T14:19:43;9.10;99.90
9482;DHT22;4779;48.062;11.672;2023-11-21T14:22:10;9.10;99.90
9482;DHT22;4779;48.062;11.672;2023-11-21T14:24:37;9.00;99.90
9482;DHT22;4779;48.062;11.672;2023-11-21T14:27:09;9.10;99.90
9482;DHT22;4779;48.062;11.672;2023-11-21T14:29:36;9.00;99.90
9482;DHT22;4779;48.062;11.672;2023-11-21T14:32:08;9.00;99.90
9482;DHT22;4779;48.062;11.672;2023-11-21T14:34:35;9.00;99.90
9482;DHT22;4779;48.062;11.672;2023-11-21T14:37:05;8.90;99.90
9482;DHT22;4779;48.062;11.672;2023-11-21T14:39:32;8.80;99.90
9482;DHT22;4779;48.062;11.672;2023-11-21T14:42:06;8.70;99.90
9482;DHT22;4779;48.062;11.672;2023-11-21T14:44:33;8.60;99.90
9482;DHT22;4779;48.062;11.672;2023-11-21T14:47:04;8.40;99.90
9482;DHT22;4779;48.062;11.672;2023-11-21T14:49:40;8.40;99.90
9482;DHT22;4779;48.062;11.672;2023-11-21T14:52:19;8.30;99.90
9482;DHT22;4779;48.062;11.672;2023-11-21T14:54:59;8.20;99.90
9482;DHT22;4779;48.062;11.672;2023-11-21T14:57:46;8.20;99.90
9482;DHT22;4779;48.062;11.672;2023-11-21T15:00:20;8.10;99.90
9482;DHT22;4779;48.062;11.672;2023-11-21T15:03:09;8.10;99.90
9482;DHT22;4779;48.062;11.672;2023-11-21T15:05:47;8.10;99.90
9482;DHT22;4779;48.062;11.672;2023-11-21T15:08:16;8.00;99.90
9482;DHT22;4779;48.062;11.672;2023-11-21T15:10:47;8.00;99.90
9482;DHT22;4779;48.062;11.672;2023-11-21T15:13:19;8.00;99.90
9482;DHT22;4779;48.062;11.672;2023-11-21T15:15:47;8.00;99.90
9482;DHT22;4779;48.062;11.672;2023-11-21T15:18:14;8.00;99.90
9482;DHT22;4779;48.062;11.672;2023-11-21T15:20:44;8.00;99.90
9482;DHT22;4779;48.062;11.672;2023-11-21T15:23:11;8.00;99.90
9482;DHT22;4779;48.062;11.672;2023-11-21T15:25:43;7.90;99.90
9482;DHT22;4779;48.062;11.672;2023-11-21T15:28:11;7.90;99.90
9482;DHT22;4779;48.062;11.672;2023-11-21T15:30:38;7.90;99.90
9482;DHT22;4779;48.062;11.672;2023-11-21T15:33:05;7.90;99.90
9482;DHT22;4779;48.062;11.672;2023-11-21T15:35:33;7.80;99.90
9482;DHT22;4779;48.062;11.672;2023-11-21T15:38:03;7.80;99.90
9482;DHT22;4779;48.062;11.672;2023-11-21T15:40:30;7.80;99.90
9482;DHT22;4779;48.062;11.672;2023-11-21T15:42:59;7.80;99.90
9482;DHT22;4779;48.062;11.672;2023-11-21T15:45:28;7.80;99.90
9482;DHT22;4779;48.062;11.672;2023-11-21T15:47:55;7.80;99.90
9482;DHT22;4779;48.062;11.672;2023-11-21T15:50:24;7.80;99.90
9482;DHT22;4779;48.062;11.672;2023-11-21T15:52:53;7.80;99.90
9482;DHT22;4779;48.062;11.672;2023-11-21T15:55:29;7.80;99.90
9482;DHT22;4779;48.062;11.672;2023-11-21T15:58:05;7.70;99.90
9482;DHT22;4779;48.062;11.672;2023-11-21T16:00:37;7.80;99.90
9482;DHT22;4779;48.062;11.672;2023-11-21T16:03:10;7.80;99.90
9482;DHT22;4779;48.062;11.672;2023-11-21T16:05:42;7.80;99.90
9482;DHT22;4779;48.062;11.672;2023-11-21T16:08:18;7.80;99.90
9482;DHT22;4779;48.062;11.672;2023-11-21T16:10:50;7.80;99.90
9482;DHT22;4779;48.062;11.672;2023-11-21T16:13:24;7.80;99.90
9482;DHT22;4779;48.062;11.672;2023-11-21T16:15:56;7.80;99.90